Time;durP1;ratioP1;P1;durP2;ratioP2;P2;SDS_P1;SDS_P2;PMS_P1;PMS_P2;Temp;Humidity;BMP_temperature;BMP_pressure;BME280_temperature;BME280_humidity;BME280_pressure;Samples;Min_cycle;Max_cycle;Signal;HPM_P1;HPM_P2
2022/05/17 00:01:22;;;;;;;;;;;;;;;;;;5090666;28;19912;-78
2022/05/17 00:04:08;;;;;;;;;;;;;;;;;;5082242;28;19931;-78
2022/05/17 00:06:55;;;;;;;;;;;;;;;;;;5089519;28;19927;-79
2022/05/17 00:09:41;;;;;;;;;;;;;;;;;;5089698;28;19937;-80
2022/05/17 00:12:28;;;;;;;;;;;;;;;;;;5093880;28;19915;-79
2022/05/17 00:15:14;;;;;;;;;;;;;;;;;;5092797;28;19938;-79
2022/05/17 00:18:01;;;;;;;;;;;;;;;;;;5085232;28;19916;-79
2022/05/17 00:20:47;;;;;;;;;;;;;;;;;;5088851;28;19912;-79
2022/05/17 00:23:36;;;;;;;;;;;;;;;;;;5114414;27;19915;-79
2022/05/17 00:26:23;;;;;;;;;;;;;;;;;;5097408;28;19913;-79
2022/05/17 00:29:09;;;;;;;;;;;;;;;;;;5082624;28;19920;-79
2022/05/17 00:31:56;;;;;;;;;;;;;;;;;;5083632;28;19919;-79
2022/05/17 00:34:44;;;;;;;;;;;;;;;;;;5085880;28;19943;-79
2022/05/17 00:37:31;;;;;;;;;;;;;;;;;;5083425;28;19939;-79
2022/05/17 00:40:17;;;;;;;;;;;;;;;;;;5084351;28;19916;-79
2022/05/17 00:43:04;;;;;;;;;;;;;;;;;;5083704;28;20292;-79
2022/05/17 00:45:50;;;;;;;;;;;;;;;;;;5095334;28;20382;-79
2022/05/17 00:48:37;;;;;;;;;;;;;;;;;;5085764;28;19912;-79
2022/05/17 00:51:23;;;;;;;;;;;;;;;;;;5089812;28;20360;-79
2022/05/17 00:54:10;;;;;;;;;;;;;;;;;;5078335;28;19923;-79
2022/05/17 00:56:56;;;;;;;;;;;;;;;;;;5077443;28;20660;-79
2022/05/17 00:59:42;;;;;;;;;;;;;;;;;;5081513;28;19916;-78
2022/05/17 01:02:29;;;;;;;;;;;;;;;;;;5085512;28;19908;-78
2022/05/17 01:05:15;;;;;;;;;;;;;;;;;;5087500;28;19914;-79
2022/05/17 01:08:02;;;;;;;;;;;;;;;;;;5090061;28;19916;-78
2022/05/17 01:10:48;;;;;;;;;;;;;;;;;;5099131;28;20437;-79
2022/05/17 01:16:40;;;;;;;;;;;;;;;;;;5082824;28;20273;-79
2022/05/17 01:19:27;;;;;;;;;;;;;;;;;;5075407;28;20299;-79
2022/05/17 01:22:13;;;;;;;;;;;;;;;;;;5090475;28;19920;-79
2022/05/17 01:25:00;;;;;;;;;;;;;;;;;;5081038;28;19912;-79
2022/05/17 01:27:46;;;;;;;;;;;;;;;;;;5088984;28;19920;-79
2022/05/17 01:30:33;;;;;;;;;;;;;;;;;;5093378;28;19918;-78
2022/05/17 01:33:19;;;;;;;;;;;;;;;;;;5088441;28;19915;-79
2022/05/17 01:36:06;;;;;;;;;;;;;;;;;;5086253;28;19930;-79
2022/05/17 01:38:53;;;;;;;;;;;;;;;;;;5089651;28;20136;-77
2022/05/17 01:41:39;;;;;;;;;;;;;;;;;;5088828;28;19968;-79
2022/05/17 01:44:26;;;;;;;;;;;;;;;;;;5086552;28;19916;-80
2022/05/17 01:47:12;;;;;;;;;;;;;;;;;;5088346;28;19935;-79
2022/05/17 01:49:59;;;;;;;;;;;;;;;;;;5073444;28;19919;-79
2022/05/17 01:52:45;;;;;;;;;;;;;;;;;;5082261;28;19920;-79
2022/05/17 01:55:32;;;;;;;;;;;;;;;;;;5082103;28;19923;-79
2022/05/17 01:58:18;;;;;;;;;;;;;;;;;;5087878;28;19912;-79
2022/05/17 02:01:05;;;;;;;;;;;;;;;;;;5086959;28;19908;-78
2022/05/17 02:03:52;;;;;;;;;;;;;;;;;;5087327;28;19924;-79
2022/05/17 02:06:38;;;;;;;;;;;;;;;;;;5079357;28;19908;-78
2022/05/17 02:09:24;;;;;;;;;;;;;;;;;;5088785;28;20520;-79
2022/05/17 02:12:11;;;;;;;;;;;;;;;;;;5084292;28;19920;-78
2022/05/17 02:14:57;;;;;;;;;;;;;;;;;;5088958;28;19919;-78
2022/05/17 02:17:44;;;;;;;;;;;;;;;;;;5083879;28;19923;-78
2022/05/17 02:20:30;;;;;;;;;;;;;;;;;;5088038;28;19908;-78
2022/05/17 02:23:17;;;;;;;;;;;;;;;;;;5088616;28;20364;-78
2022/05/17 02:26:03;;;;;;;;;;;;;;;;;;5070789;28;19913;-78
2022/05/17 02:28:50;;;;;;;;;;;;;;;;;;5085663;28;19919;-78
2022/05/17 02:31:37;;;;;;;;;;;;;;;;;;5082177;28;19918;-77
2022/05/17 02:34:24;;;;;;;;;;;;;;;;;;5087467;28;20358;-79
2022/05/17 02:37:10;;;;;;;;;;;;;;;;;;5087343;28;19931;-78
2022/05/17 02:39:57;;;;;;;;;;;;;;;;;;5084492;28;19928;-77
2022/05/17 02:42:43;;;;;;;;;;;;;;;;;;5084297;28;20305;-78
2022/05/17 02:45:29;;;;;;;;;;;;;;;;;;5084594;28;19923;-78
2022/05/17 02:48:16;;;;;;;;;;;;;;;;;;5087342;28;20371;-77
2022/05/17 02:51:02;;;;;;;;;;;;;;;;;;5098416;28;19912;-77
2022/05/17 02:53:49;;;;;;;;;;;;;;;;;;5091660;28;21149;-79
2022/05/17 02:56:35;;;;;;;;;;;;;;;;;;5087116;28;19920;-79
2022/05/17 02:59:22;;;;;;;;;;;;;;;;;;5101754;28;20292;-78
2022/05/17 03:02:08;;;;;;;;;;;;;;;;;;5083786;28;19919;-78
2022/05/17 03:04:55;;;;;;;;;;;;;;;;;;5085702;28;19918;-78
2022/05/17 03:07:41;;;;;;;;;;;;;;;;;;5078116;28;19974;-79
2022/05/17 03:10:29;;;;;;;;;;;;;;;;;;5085608;28;19945;-79
2022/05/17 03:13:15;;;;;;;;;;;;;;;;;;5089445;28;19918;-79
2022/05/17 03:16:02;;;;;;;;;;;;;;;;;;5092851;28;20268;-79
2022/05/17 03:18:50;;;;;;;;;;;;;;;;;;5087905;28;19923;-79
2022/05/17 03:21:40;;;;;;;;;;;;;;;;;;5085290;28;19924;-79
2022/05/17 03:27:39;;;;;;;;;;;;;;;;;;5091908;28;19920;-80
2022/05/17 03:30:25;;;;;;;;;;;;;;;;;;5096052;28;20331;-80
2022/05/17 03:33:12;;;;;;;;;;;;;;;;;;5101246;28;19923;-80
2022/05/17 03:36:22;;;;;;;;;;;;;;;;;;5092144;28;19924;-78
2022/05/17 03:39:14;;;;;;;;;;;;;;;;;;5089297;28;19932;-79
2022/05/17 03:42:04;;;;;;;;;;;;;;;;;;5094118;28;20380;-79
2022/05/17 03:48:00;;;;;;;;;;;;;;;;;;5096485;28;19912;-80
2022/05/17 03:50:55;;;;;;;;;;;;;;;;;;5088726;28;19926;-78
2022/05/17 03:53:53;;;;;;;;;;;;;;;;;;5087634;28;19957;-78
2022/05/17 03:56:39;;;;;;;;;;;;;;;;;;5085765;28;19920;-79
2022/05/17 03:59:26;;;;;;;;;;;;;;;;;;5086750;28;19920;-79
2022/05/17 04:02:12;;;;;;;;;;;;;;;;;;5086507;28;20372;-79
2022/05/17 04:04:59;;;;;;;;;;;;;;;;;;5087647;28;19922;-78
2022/05/17 04:07:48;;;;;;;;;;;;;;;;;;5098163;28;19916;-81
2022/05/17 04:10:35;;;;;;;;;;;;;;;;;;5085606;28;19923;-79
2022/05/17 04:13:21;;;;;;;;;;;;;;;;;;5083237;28;19922;-82
2022/05/17 04:16:08;;;;;;;;;;;;;;;;;;5085731;28;19923;-80
2022/05/17 04:18:54;;;;;;;;;;;;;;;;;;5087066;28;19982;-79
2022/05/17 04:21:41;;;;;;;;;;;;;;;;;;5087899;28;19908;-79
2022/05/17 04:24:27;;;;;;;;;;;;;;;;;;5095132;28;19912;-80
2022/05/17 04:27:14;;;;;;;;;;;;;;;;;;5103132;28;20439;-80
2022/05/17 04:30:00;;;;;;;;;;;;;;;;;;5091735;28;19912;-80
2022/05/17 04:32:47;;;;;;;;;;;;;;;;;;5084179;28;19917;-79
2022/05/17 04:35:33;;;;;;;;;;;;;;;;;;5084406;28;20286;-80
2022/05/17 04:38:20;;;;;;;;;;;;;;;;;;5077983;28;19912;-80
2022/05/17 04:41:06;;;;;;;;;;;;;;;;;;5090055;28;19908;-80
2022/05/17 04:43:53;;;;;;;;;;;;;;;;;;5080843;28;20294;-79
2022/05/17 04:46:40;;;;;;;;;;;;;;;;;;5085670;28;20010;-79
2022/05/17 04:49:26;;;;;;;;;;;;;;;;;;5085311;28;19919;-80
2022/05/17 04:52:13;;;;;;;;;;;;;;;;;;5089324;28;19908;-80
2022/05/17 04:54:59;;;;;;;;;;;;;;;;;;5087912;28;20327;-80
2022/05/17 04:57:46;;;;;;;;;;;;;;;;;;5087886;28;19990;-80
2022/05/17 05:00:32;;;;;;;;;;;;;;;;;;5102382;28;19931;-80
2022/05/17 05:03:19;;;;;;;;;;;;;;;;;;5089424;28;20440;-81
2022/05/17 05:06:05;;;;;;;;;;;;;;;;;;5091934;28;19918;-80
2022/05/17 05:08:52;;;;;;;;;;;;;;;;;;5092133;28;19934;-78
2022/05/17 05:11:38;;;;;;;;;;;;;;;;;;5090506;28;19927;-79
2022/05/17 05:14:24;;;;;;;;;;;;;;;;;;5086599;28;19919;-79
2022/05/17 05:17:11;;;;;;;;;;;;;;;;;;5090346;28;19914;-79
2022/05/17 05:19:58;;;;;;;;;;;;;;;;;;5076081;28;20335;-79
2022/05/17 05:22:44;;;;;;;;;;;;;;;;;;5079056;28;19912;-79
2022/05/17 05:25:30;;;;;;;;;;;;;;;;;;5089434;28;20279;-79
2022/05/17 05:28:17;;;;;;;;;;;;;;;;;;5083319;28;19924;-79
2022/05/17 05:31:03;;;;;;;;;;;;;;;;;;5088943;28;19908;-79
2022/05/17 05:33:50;;;;;;;;;;;;;;;;;;5088479;28;19908;-79
2022/05/17 05:36:36;;;;;;;;;;;;;;;;;;5089953;28;19923;-79
2022/05/17 05:39:23;;;;;;;;;;;;;;;;;;5089276;28;19927;-79
2022/05/17 05:42:09;;;;;;;;;;;;;;;;;;5082825;28;19908;-80
2022/05/17 05:44:56;;;;;;;;;;;;;;;;;;5088387;28;19908;-80
2022/05/17 05:47:43;;;;;;;;;;;;;;;;;;5092150;28;19908;-81
2022/05/17 05:50:29;;;;;;;;;;;;;;;;;;5091403;28;20014;-80
2022/05/17 05:53:15;;;;;;;;;;;;;;;;;;5093338;28;19930;-80
2022/05/17 05:56:02;;;;;;;;;;;;;;;;;;5091671;28;20364;-81
2022/05/17 05:58:48;;;;;;;;;;;;;;;;;;5096017;28;19919;-79
2022/05/17 06:01:35;;;;;;;;;;;;;;;;;;5096122;28;19912;-78
2022/05/17 06:04:21;;;;;;;;;;;;;;;;;;5088832;28;19908;-79
2022/05/17 06:07:08;;;;;;;;;;;;;;;;;;5095356;28;19918;-79
2022/05/17 06:09:55;;;;;;;;;;;;;;;;;;5091087;28;19912;-78
2022/05/17 06:12:41;;;;;;;;;;;;;;;;;;5082296;28;20371;-79
2022/05/17 06:15:27;;;;;;;;;;;;;;;;;;5087572;28;19912;-81
2022/05/17 06:18:14;;;;;;;;;;;;;;;;;;5089999;28;20289;-80
2022/05/17 06:21:00;;;;;;;;;;;;;;;;;;5079491;28;19912;-81
2022/05/17 06:23:47;;;;;;;;;;;;;;;;;;5086314;28;19916;-80
2022/05/17 06:26:33;;;;;;;;;;;;;;;;;;5081490;28;19920;-80
2022/05/17 06:29:20;;;;;;;;;;;;;;;;;;5087522;28;20421;-77
2022/05/17 06:32:07;;;;;;;;;;;;;;;;;;5089175;28;20390;-80
2022/05/17 06:34:53;;;;;;;;;;;;;;;;;;5090001;28;19908;-81
2022/05/17 06:37:40;;;;;;;;;;;;;;;;;;5092705;28;19907;-80
2022/05/17 06:40:26;;;;;;;;;;;;;;;;;;5104900;28;19920;-79
2022/05/17 06:43:12;;;;;;;;;;;;;;;;;;5085156;28;19916;-78
2022/05/17 06:45:59;;;;;;;;;;;;;;;;;;5087369;28;19938;-78
2022/05/17 06:48:45;;;;;;;;;;;;;;;;;;5089663;28;20371;-79
2022/05/17 06:51:35;;;;;;;;;;;;;;;;;;5101292;28;19920;-79
2022/05/17 06:54:24;;;;;;;;;;;;;;;;;;5088546;28;20381;-81
2022/05/17 06:57:10;;;;;;;;;;;;;;;;;;5093598;28;19912;-78
2022/05/17 06:59:57;;;;;;;;;;;;;;;;;;5092883;28;19923;-83
2022/05/17 07:02:43;;;;;;;;;;;;;;;;;;5118243;27;19908;-78
2022/05/17 07:05:30;;;;;;;;;;;;;;;;;;5098067;28;19931;-78
2022/05/17 07:08:16;;;;;;;;;;;;;;;;;;5098847;28;19908;-84
2022/05/17 07:14:15;;;;;;;;;;;;;;;;;;5101267;28;19908;-83
2022/05/17 07:17:01;;;;;;;;;;;;;;;;;;5098009;28;19908;-83
2022/05/17 07:19:48;;;;;;;;;;;;;;;;;;5090674;28;19923;-82
2022/05/17 07:22:34;;;;;;;;;;;;;;;;;;5096200;28;19908;-83
2022/05/17 07:25:21;;;;;;;;;;;;;;;;;;5096601;28;19912;-83
2022/05/17 07:28:07;;;;;;;;;;;;;;;;;;5098792;28;19924;-83
2022/05/17 07:30:54;;;;;;;;;;;;;;;;;;5098740;28;19914;-83
2022/05/17 07:33:40;;;;;;;;;;;;;;;;;;5088137;28;19908;-84
2022/05/17 07:36:27;;;;;;;;;;;;;;;;;;5090732;28;19923;-83
2022/05/17 07:39:13;;;;;;;;;;;;;;;;;;5090784;28;19927;-83
2022/05/17 07:42:00;;;;;;;;;;;;;;;;;;5091305;28;19916;-83
2022/05/17 07:44:46;;;;;;;;;;;;;;;;;;5091580;28;19914;-83
2022/05/17 07:47:33;;;;;;;;;;;;;;;;;;5089945;28;19912;-84
2022/05/17 07:50:19;;;;;;;;;;;;;;;;;;5066330;28;19912;-83
2022/05/17 07:53:08;;;;;;;;;;;;;;;;;;5102631;28;19908;-82
2022/05/17 07:55:55;;;;;;;;;;;;;;;;;;5077230;28;20083;-82
2022/05/17 07:58:42;;;;;;;;;;;;;;;;;;5076812;28;20517;-84
2022/05/17 08:01:28;;;;;;;;;;;;;;;;;;5091462;28;19916;-83
2022/05/17 08:04:14;;;;;;;;;;;;;;;;;;5082562;28;20379;-83
2022/05/17 08:07:01;;;;;;;;;;;;;;;;;;5087798;28;19907;-83
2022/05/17 08:09:47;;;;;;;;;;;;;;;;;;5097279;28;19916;-83
2022/05/17 08:12:34;;;;;;;;;;;;;;;;;;5092246;28;19915;-83
2022/05/17 08:15:20;;;;;;;;;;;;;;;;;;5092934;28;19915;-83
2022/05/17 08:18:07;;;;;;;;;;;;;;;;;;5087025;28;19912;-82
2022/05/17 08:20:53;;;;;;;;;;;;;;;;;;5087392;28;20237;-83
2022/05/17 08:23:40;;;;;;;;;;;;;;;;;;5091107;28;19916;-83
2022/05/17 08:29:31;;;;;;;;;;;;;;;;;;5087668;28;19914;-83
2022/05/17 08:35:23;;;;;;;;;;;;;;;;;;5084198;28;19914;-84
2022/05/17 08:38:09;;;;;;;;;;;;;;;;;;5088530;28;19941;-83
2022/05/17 08:40:56;;;;;;;;;;;;;;;;;;5106080;28;19917;-83
2022/05/17 08:43:43;;;;;;;;;;;;;;;;;;5109379;28;19908;-84
2022/05/17 08:46:29;;;;;;;;;;;;;;;;;;5093611;28;19918;-84
2022/05/17 08:49:16;;;;;;;;;;;;;;;;;;5094338;28;19916;-83
2022/05/17 08:52:04;;;;;;;;;;;;;;;;;;5091948;28;19908;-83
2022/05/17 08:54:50;;;;;;;;;;;;;;;;;;5090433;28;19939;-83
2022/05/17 08:57:37;;;;;;;;;;;;;;;;;;5091171;28;19912;-83
2022/05/17 09:00:23;;;;;;;;;;;;;;;;;;5074403;28;19916;-84
2022/05/17 09:03:10;;;;;;;;;;;;;;;;;;5090749;28;19942;-83
2022/05/17 09:05:56;;;;;;;;;;;;;;;;;;5095501;28;20284;-83
2022/05/17 09:08:42;;;;;;;;;;;;;;;;;;5090472;28;19908;-83
2022/05/17 09:11:29;;;;;;;;;;;;;;;;;;5075034;28;19908;-83
2022/05/17 09:14:15;;;;;;;;;;;;;;;;;;5090345;28;19919;-83
2022/05/17 09:17:02;;;;;;;;;;;;;;;;;;5088955;28;19922;-83
2022/05/17 09:19:49;;;;;;;;;;;;;;;;;;5088304;28;19920;-83
2022/05/17 09:22:35;;;;;;;;;;;;;;;;;;5087606;28;19908;-83
2022/05/17 09:25:22;;;;;;;;;;;;;;;;;;5089928;28;20283;-83
2022/05/17 09:28:08;;;;;;;;;;;;;;;;;;5089475;28;19943;-84
2022/05/17 09:30:55;;;;;;;;;;;;;;;;;;5088850;28;19934;-83
2022/05/17 09:33:41;;;;;;;;;;;;;;;;;;5089282;28;19918;-82
2022/05/17 09:36:28;;;;;;;;;;;;;;;;;;5088510;28;19922;-83
2022/05/17 09:39:14;;;;;;;;;;;;;;;;;;5087778;28;20268;-84
2022/05/17 09:42:01;;;;;;;;;;;;;;;;;;5090250;28;19919;-83
2022/05/17 09:44:47;;;;;;;;;;;;;;;;;;5101663;28;19916;-83
2022/05/17 09:47:37;;;;;;;;;;;;;;;;;;5088374;28;19908;-82
2022/05/17 09:53:28;;;;;;;;;;;;;;;;;;5076674;28;20331;-83
2022/05/17 09:56:18;;;;;;;;;;;;;;;;;;5089194;28;19912;-83
2022/05/17 09:59:04;;;;;;;;;;;;;;;;;;5090281;28;19955;-83
2022/05/17 10:01:51;;;;;;;;;;;;;;;;;;5060636;28;19914;-83
2022/05/17 10:04:40;;;;;;;;;;;;;;;;;;5100256;28;19912;-83
2022/05/17 10:07:27;;;;;;;;;;;;;;;;;;5080666;28;19912;-82
2022/05/17 10:10:13;;;;;;;;;;;;;;;;;;5096796;28;20012;-83
2022/05/17 10:13:00;;;;;;;;;;;;;;;;;;5093736;28;19908;-82
2022/05/17 10:15:47;;;;;;;;;;;;;;;;;;5102273;28;19912;-82
2022/05/17 10:18:33;;;;;;;;;;;;;;;;;;5084283;28;19908;-82
2022/05/17 10:21:20;;;;;;;;;;;;;;;;;;5081689;28;19919;-82
2022/05/17 10:24:06;;;;;;;;;;;;;;;;;;5090269;28;19923;-83
2022/05/17 10:26:53;;;;;;;;;;;;;;;;;;5092983;28;19924;-83
2022/05/17 10:29:40;;;;;;;;;;;;;;;;;;5077284;28;19934;-83
2022/05/17 10:32:26;;;;;;;;;;;;;;;;;;5082867;28;19919;-83
2022/05/17 10:35:13;;;;;;;;;;;;;;;;;;5074323;28;19913;-83
2022/05/17 10:38:02;;;;;;;;;;;;;;;;;;5092945;28;19919;-82
2022/05/17 10:40:49;;;;;;;;;;;;;;;;;;5092487;28;19923;-83
2022/05/17 10:43:36;;;;;;;;;;;;;;;;;;5098669;27;19914;-82
2022/05/17 10:46:22;;;;;;;;;;;;;;;;;;5090859;28;19923;-83
2022/05/17 10:49:09;;;;;;;;;;;;;;;;;;5092757;28;20557;-82
2022/05/17 10:51:56;;;;;;;;;;;;;;;;;;5092623;28;19915;-82
2022/05/17 10:54:43;;;;;;;;;;;;;;;;;;5092390;28;19908;-81
2022/05/17 10:57:29;;;;;;;;;;;;;;;;;;5085449;28;20283;-82
2022/05/17 11:00:18;;;;;;;;;;;;;;;;;;5084223;28;20390;-82
2022/05/17 11:03:06;;;;;;;;;;;;;;;;;;5104965;28;19908;-83
2022/05/17 11:05:53;;;;;;;;;;;;;;;;;;5101837;28;20415;-83
2022/05/17 11:08:39;;;;;;;;;;;;;;;;;;5087409;28;19908;-82
2022/05/17 11:11:26;;;;;;;;;;;;;;;;;;5091700;28;19912;-83
2022/05/17 11:14:12;;;;;;;;;;;;;;;;;;5092025;28;20671;-82
2022/05/17 11:16:59;;;;;;;;;;;;;;;;;;5089577;28;19912;-83
2022/05/17 11:19:45;;;;;;;;;;;;;;;;;;5088170;28;20390;-82
2022/05/17 11:22:32;;;;;;;;;;;;;;;;;;5101436;28;19912;-82
2022/05/17 11:25:18;;;;;;;;;;;;;;;;;;5098178;28;19908;-83
2022/05/17 11:28:05;;;;;;;;;;;;;;;;;;5085620;28;19920;-82
2022/05/17 11:30:51;;;;;;;;;;;;;;;;;;5091617;28;19908;-83
2022/05/17 11:33:39;;;;;;;;;;;;;;;;;;5082100;28;19908;-83
2022/05/17 11:36:25;;;;;;;;;;;;;;;;;;5090827;28;19908;-83
2022/05/17 11:39:11;;;;;;;;;;;;;;;;;;5104229;28;20409;-83
2022/05/17 11:41:58;;;;;;;;;;;;;;;;;;5093086;28;19916;-82
2022/05/17 11:44:45;;;;;;;;;;;;;;;;;;5076522;28;20249;-83
2022/05/17 11:47:32;;;;;;;;;;;;;;;;;;5088592;28;19916;-82
2022/05/17 11:50:20;;;;;;;;;;;;;;;;;;5089976;28;19930;-82
2022/05/17 11:53:06;;;;;;;;;;;;;;;;;;5090580;28;19908;-83
2022/05/17 11:55:53;;;;;;;;;;;;;;;;;;5084833;28;19912;-82
2022/05/17 11:58:40;;;;;;;;;;;;;;;;;;5090964;28;19930;-82
2022/05/17 12:01:27;;;;;;;;;;;;;;;;;;5092098;28;19920;-82
2022/05/17 12:04:13;;;;;;;;;;;;;;;;;;5095393;28;19912;-82
2022/05/17 12:07:04;;;;;;;;;;;;;;;;;;5089209;28;20584;-82
2022/05/17 12:09:51;;;;;;;;;;;;;;;;;;5094924;28;20285;-81
2022/05/17 12:12:37;;;;;;;;;;;;;;;;;;5090677;28;19935;-77
2022/05/17 12:15:23;;;;;;;;;;;;;;;;;;5089183;28;20409;-78
2022/05/17 12:18:10;;;;;;;;;;;;;;;;;;5090977;28;19915;-81
2022/05/17 12:20:56;;;;;;;;;;;;;;;;;;5091860;28;19928;-77
2022/05/17 12:23:43;;;;;;;;;;;;;;;;;;5088284;28;20442;-75
2022/05/17 12:26:29;;;;;;;;;;;;;;;;;;5086759;28;19920;-76
2022/05/17 12:32:21;;;;;;;;;;;;;;;;;;5083900;28;19909;-76
2022/05/17 12:35:08;;;;;;;;;;;;;;;;;;5085982;28;19915;-78
2022/05/17 12:37:56;;;;;;;;;;;;;;;;;;5090577;28;19908;-78
2022/05/17 12:43:47;;;;;;;;;;;;;;;;;;5088750;28;19916;-78
2022/05/17 12:46:34;;;;;;;;;;;;;;;;;;5089347;28;20299;-78
2022/05/17 12:49:21;;;;;;;;;;;;;;;;;;5088620;28;19912;-78
2022/05/17 12:52:07;;;;;;;;;;;;;;;;;;5089355;28;19920;-78
2022/05/17 12:54:54;;;;;;;;;;;;;;;;;;5090003;28;20360;-79
2022/05/17 12:57:44;;;;;;;;;;;;;;;;;;5082578;28;19912;-78
2022/05/17 13:00:30;;;;;;;;;;;;;;;;;;5088289;28;19923;-79
2022/05/17 13:03:19;;;;;;;;;;;;;;;;;;5090799;28;19911;-79
2022/05/17 13:06:06;;;;;;;;;;;;;;;;;;5089843;28;19912;-77
2022/05/17 13:08:52;;;;;;;;;;;;;;;;;;5090756;28;20406;-77
2022/05/17 13:11:39;;;;;;;;;;;;;;;;;;5090110;28;19923;-76
2022/05/17 13:14:25;;;;;;;;;;;;;;;;;;5103084;27;19908;-76
2022/05/17 13:17:12;;;;;;;;;;;;;;;;;;5095352;28;19916;-76
2022/05/17 13:19:58;;;;;;;;;;;;;;;;;;5093185;28;19939;-76
2022/05/17 13:22:45;;;;;;;;;;;;;;;;;;5091519;28;19919;-76
2022/05/17 13:25:31;;;;;;;;;;;;;;;;;;5089235;28;20631;-76
2022/05/17 13:28:18;;;;;;;;;;;;;;;;;;5088739;28;19920;-77
2022/05/17 13:31:08;;;;;;;;;;;;;;;;;;5085814;28;20554;-77
2022/05/17 13:33:55;;;;;;;;;;;;;;;;;;5088966;28;19919;-76
2022/05/17 13:36:41;;;;;;;;;;;;;;;;;;5087958;28;19912;-77
2022/05/17 13:39:28;;;;;;;;;;;;;;;;;;5089009;28;19919;-77
2022/05/17 13:42:15;;;;;;;;;;;;;;;;;;5088662;28;19916;-77
2022/05/17 13:45:01;;;;;;;;;;;;;;;;;;5088930;28;20275;-77
2022/05/17 13:47:48;;;;;;;;;;;;;;;;;;5088828;28;19912;-78
2022/05/17 13:50:34;;;;;;;;;;;;;;;;;;5087855;28;19908;-77
2022/05/17 13:53:21;;;;;;;;;;;;;;;;;;5088173;28;19908;-77
2022/05/17 13:56:07;;;;;;;;;;;;;;;;;;5086625;28;19939;-78
2022/05/17 13:58:54;;;;;;;;;;;;;;;;;;5100243;28;19915;-77
2022/05/17 14:01:40;;;;;;;;;;;;;;;;;;5088745;28;19919;-79
2022/05/17 14:04:27;;;;;;;;;;;;;;;;;;5089647;28;19920;-78
2022/05/17 14:07:13;;;;;;;;;;;;;;;;;;5100956;28;20313;-79
2022/05/17 14:13:06;;;;;;;;;;;;;;;;;;5080146;28;19912;-78
2022/05/17 14:15:52;;;;;;;;;;;;;;;;;;5079296;28;20489;-79
2022/05/17 14:18:40;;;;;;;;;;;;;;;;;;5083344;28;19908;-78
2022/05/17 14:21:28;;;;;;;;;;;;;;;;;;5081198;28;19916;-78
2022/05/17 14:24:18;;;;;;;;;;;;;;;;;;5089565;28;19908;-78
2022/05/17 14:27:04;;;;;;;;;;;;;;;;;;5084340;28;19931;-77
2022/05/17 14:29:51;;;;;;;;;;;;;;;;;;5082570;28;20368;-77
2022/05/17 14:32:38;;;;;;;;;;;;;;;;;;5083000;28;20377;-78
2022/05/17 14:35:24;;;;;;;;;;;;;;;;;;5087995;28;19909;-77
2022/05/17 14:38:11;;;;;;;;;;;;;;;;;;5087508;28;19924;-77
2022/05/17 14:40:57;;;;;;;;;;;;;;;;;;5088443;28;19931;-77
2022/05/17 14:43:44;;;;;;;;;;;;;;;;;;5088410;28;19909;-78
2022/05/17 14:46:30;;;;;;;;;;;;;;;;;;5087052;28;20005;-78
2022/05/17 14:49:17;;;;;;;;;;;;;;;;;;5087995;28;19919;-78
2022/05/17 14:52:03;;;;;;;;;;;;;;;;;;5100932;28;19909;-78
2022/05/17 14:54:50;;;;;;;;;;;;;;;;;;5101243;28;20352;-78
2022/05/17 14:57:37;;;;;;;;;;;;;;;;;;5080764;28;19912;-79
2022/05/17 15:00:24;;;;;;;;;;;;;;;;;;5080434;28;19928;-79
2022/05/17 15:03:10;;;;;;;;;;;;;;;;;;5077737;28;19915;-79
2022/05/17 15:05:57;;;;;;;;;;;;;;;;;;5086973;28;19908;-79
2022/05/17 15:08:45;;;;;;;;;;;;;;;;;;5088176;28;19943;-78
2022/05/17 15:11:31;;;;;;;;;;;;;;;;;;5091080;28;19919;-78
2022/05/17 15:14:17;;;;;;;;;;;;;;;;;;5077571;28;19939;-78
2022/05/17 15:17:04;;;;;;;;;;;;;;;;;;5084311;28;19912;-77
2022/05/17 15:19:50;;;;;;;;;;;;;;;;;;5072187;28;19931;-82
2022/05/17 15:22:39;;;;;;;;;;;;;;;;;;5083650;28;20388;-77
2022/05/17 15:25:26;;;;;;;;;;;;;;;;;;5095824;28;20021;-77
2022/05/17 15:28:12;;;;;;;;;;;;;;;;;;5093851;28;19931;-77
2022/05/17 15:30:59;;;;;;;;;;;;;;;;;;5085572;28;19924;-78
2022/05/17 15:33:45;;;;;;;;;;;;;;;;;;5083461;28;19910;-77
2022/05/17 15:36:33;;;;;;;;;;;;;;;;;;5095933;27;19912;-77
2022/05/17 15:39:20;;;;;;;;;;;;;;;;;;5084775;28;20359;-78
2022/05/17 15:42:25;;;;;;;;;;;;;;;;;;;;;
2022/05/17 15:45:15;;;;;;;;;;;;;;;;;;5064774;28;19933;-77
2022/05/17 15:54:14;;;;;;;;;;;;;;;;;;5088984;28;20411;-78
2022/05/17 15:57:00;;;;;;;;;;;;;;;;;;5100773;28;19920;-78
2022/05/17 15:59:47;;;;;;;;;;;;;;;;;;5088393;28;19919;-78
2022/05/17 16:02:33;;;;;;;;;;;;;;;;;;5090737;28;19926;-78
2022/05/17 16:05:20;;;;;;;;;;;;;;;;;;5077211;28;19908;-78
2022/05/17 16:08:12;;;;;;;;;;;;;;;;;;5088756;28;19908;-78
2022/05/17 16:11:47;;;;;;;;;;;;;;;;;;5083125;28;19912;-79
2022/05/17 16:14:05;;;;;;;;;;;;;;;;;;5082284;28;19915;-79
2022/05/17 16:16:52;;;;;;;;;;;;;;;;;;5088647;28;19917;-79
2022/05/17 16:19:40;;;;;;;;;;;;;;;;;;5082283;28;19931;-79
2022/05/17 16:22:28;;;;;;;;;;;;;;;;;;5083515;28;20368;-78
2022/05/17 16:25:14;;;;;;;;;;;;;;;;;;5078782;28;20292;-80
2022/05/17 16:28:01;;;;;;;;;;;;;;;;;;5081613;28;19970;-78
2022/05/17 16:30:47;;;;;;;;;;;;;;;;;;5086414;28;20557;-76
2022/05/17 16:33:34;;;;;;;;;;;;;;;;;;5083192;28;20354;-77
2022/05/17 16:36:20;;;;;;;;;;;;;;;;;;5082723;28;19950;-77
2022/05/17 16:39:07;;;;;;;;;;;;;;;;;;5082459;28;19919;-77
2022/05/17 16:41:55;;;;;;;;;;;;;;;;;;5083097;28;19928;-77
2022/05/17 16:44:41;;;;;;;;;;;;;;;;;;5086500;28;19912;-77
2022/05/17 16:47:28;;;;;;;;;;;;;;;;;;5085583;28;19922;-78
2022/05/17 16:50:14;;;;;;;;;;;;;;;;;;5086465;28;19945;-78
2022/05/17 16:53:01;;;;;;;;;;;;;;;;;;5082620;28;19913;-77
2022/05/17 16:55:56;;;;;;;;;;;;;;;;;;5082886;28;19925;-77
2022/05/17 16:58:44;;;;;;;;;;;;;;;;;;5063145;28;19916;-78
2022/05/17 17:01:30;;;;;;;;;;;;;;;;;;5088125;28;19917;-76
2022/05/17 17:04:17;;;;;;;;;;;;;;;;;;5087433;28;19912;-78
2022/05/17 17:07:03;;;;;;;;;;;;;;;;;;5085838;28;19908;-77
2022/05/17 17:09:50;;;;;;;;;;;;;;;;;;5085837;28;19912;-76
2022/05/17 17:12:36;;;;;;;;;;;;;;;;;;5085423;28;19924;-76
2022/05/17 17:15:22;;;;;;;;;;;;;;;;;;5098757;28;19912;-78
2022/05/17 17:18:09;;;;;;;;;;;;;;;;;;5086807;28;19916;-76
2022/05/17 17:20:56;;;;;;;;;;;;;;;;;;5085360;28;19924;-78
2022/05/17 17:23:43;;;;;;;;;;;;;;;;;;5087526;28;19918;-77
2022/05/17 17:26:29;;;;;;;;;;;;;;;;;;5087668;28;19916;-76
2022/05/17 17:29:16;;;;;;;;;;;;;;;;;;5087190;28;19912;-78
2022/05/17 17:38:13;;;;;;;;;;;;;;;;;;5077878;28;20380;-79
2022/05/17 17:40:59;;;;;;;;;;;;;;;;;;5088773;28;19920;-76
2022/05/17 17:43:46;;;;;;;;;;;;;;;;;;5081091;28;19919;-75
2022/05/17 17:46:33;;;;;;;;;;;;;;;;;;5090091;28;19912;-75
2022/05/17 17:49:19;;;;;;;;;;;;;;;;;;5081106;28;19908;-74
2022/05/17 17:52:07;;;;;;;;;;;;;;;;;;5080949;28;19908;-74
2022/05/17 17:54:54;;;;;;;;;;;;;;;;;;5083394;28;19986;-76
2022/05/17 17:57:42;;;;;;;;;;;;;;;;;;5078278;28;19908;-76
2022/05/17 18:00:28;;;;;;;;;;;;;;;;;;5077918;28;19920;-76
2022/05/17 18:03:16;;;;;;;;;;;;;;;;;;5084110;28;19915;-76
2022/05/17 18:06:02;;;;;;;;;;;;;;;;;;5082392;28;19912;-86
2022/05/17 18:08:49;;;;;;;;;;;;;;;;;;5081886;28;20286;-84
2022/05/17 18:11:35;;;;;;;;;;;;;;;;;;5083068;28;19909;-80
2022/05/17 18:14:22;;;;;;;;;;;;;;;;;;5077289;28;19920;-78
2022/05/17 18:17:08;;;;;;;;;;;;;;;;;;5081699;28;19917;-78
2022/05/17 18:23:08;;;;;;;;;;;;;;;;;;5093448;28;19920;-79
2022/05/17 18:26:04;;;;;;;;;;;;;;;;;;5088662;28;19915;-82
2022/05/17 18:29:01;;;;;;;;;;;;;;;;;;;;;
2022/05/17 18:31:48;;;;;;;;;;;;;;;;;;5087579;28;19923;-79
2022/05/17 18:34:50;;;;;;;;;;;;;;;;;;5088895;28;19912;-78
2022/05/17 18:37:37;;;;;;;;;;;;;;;;;;5089387;28;19908;-78
2022/05/17 18:40:23;;;;;;;;;;;;;;;;;;5089668;28;19938;-78
2022/05/17 18:43:10;;;;;;;;;;;;;;;;;;5087533;28;20295;-78
2022/05/17 18:45:56;;;;;;;;;;;;;;;;;;5087671;28;19918;-78
2022/05/17 18:48:43;;;;;;;;;;;;;;;;;;5088025;28;20018;-78
2022/05/17 18:51:29;;;;;;;;;;;;;;;;;;5089541;28;19923;-79
2022/05/17 18:54:16;;;;;;;;;;;;;;;;;;5087783;28;19919;-79
2022/05/17 18:57:02;;;;;;;;;;;;;;;;;;5086722;28;19916;-78
2022/05/17 18:59:49;;;;;;;;;;;;;;;;;;5087875;28;20398;-78
2022/05/17 19:02:36;;;;;;;;;;;;;;;;;;5090143;28;19916;-78
2022/05/17 19:05:22;;;;;;;;;;;;;;;;;;5089573;28;19916;-78
2022/05/17 19:14:21;;;;;;;;;;;;;;;;;;5088104;28;19912;-79
2022/05/17 19:17:09;;;;;;;;;;;;;;;;;;5081249;28;19927;-79
2022/05/17 19:19:58;;;;;;;;;;;;;;;;;;5085975;28;19946;-81
2022/05/17 19:22:50;;;;;;;;;;;;;;;;;;5083789;28;19927;-79
2022/05/17 19:25:40;;;;;;;;;;;;;;;;;;5089806;28;20184;-81
2022/05/17 19:28:26;;;;;;;;;;;;;;;;;;5080058;28;19927;-79
2022/05/17 19:31:13;;;;;;;;;;;;;;;;;;5088559;28;19923;-80
2022/05/17 19:34:00;;;;;;;;;;;;;;;;;;5088133;28;20181;-82
2022/05/17 19:39:51;;;;;;;;;;;;;;;;;;5085168;28;19919;-79
2022/05/17 19:42:38;;;;;;;;;;;;;;;;;;5083421;28;19911;-79
2022/05/17 19:45:25;;;;;;;;;;;;;;;;;;5083650;28;19913;-80
2022/05/17 19:48:11;;;;;;;;;;;;;;;;;;5090526;28;20375;-79
2022/05/17 19:50:58;;;;;;;;;;;;;;;;;;5086277;28;19919;-79
2022/05/17 19:53:44;;;;;;;;;;;;;;;;;;5083886;28;20352;-80
2022/05/17 19:56:31;;;;;;;;;;;;;;;;;;5088042;28;19912;-79